Terminal Aerodrome Forecast
Issued by NWS

Home | Current Version | Previous Version | Text Only | Print | Product List | Glossary Off
Versions: 1 2 3 4 5 6 7 8 9 10 11 12 13 14 15 16 17 18 19 20 21 22

000
FTUS43 KDVN 280216 AAA
TAFBRL
TAF AMD
KBRL 280216Z 2802/2824 02007KT P6SM BKN120
     FM280500 04006KT 6SM BR BKN035
     FM280900 34006KT 3SM BR BKN020
     FM281400 27007KT P6SM BKN120=

USA.gov is the U.S. government's official web portal to all federal, state and local government web resources and services.